Time;durP1;ratioP1;P1;durP2;ratioP2;P2;SDS_P1;SDS_P2;PMS_P1;PMS_P2;Temp;Humidity;BMP_temperature;BMP_pressure;BME280_temperature;BME280_humidity;BME280_pressure;Samples;Min_cycle;Max_cycle;Signal;HPM_P1;HPM_P2
2021/01/09 00:00:12;;;;;;;62.93;33.17;;;;;;;3.14;62.61;98952.39;261121;1101;115228;-73
2021/01/09 00:05:36;;;;;;;59.60;30.27;;;;;;;3.13;62.96;98948.91;261111;1103;114746;-73
2021/01/09 00:10:39;;;;;;;61.80;32.37;;;;;;;3.10;62.99;98950.78;260962;1101;114907;-74
2021/01/09 00:15:44;;;;;;;66.63;33.30;;;;;;;3.10;62.77;98953.41;260949;1104;114432;-74
2021/01/09 00:20:47;;;;;;;61.67;31.63;;;;;;;3.10;63.12;98959.52;261115;1101;114681;-74
2021/01/09 00:25:50;;;;;;;64.90;34.50;;;;;;;3.08;62.80;98954.30;260187;1101;114904;-73
2021/01/09 00:30:53;;;;;;;66.13;32.83;;;;;;;3.06;62.81;98955.28;261287;1102;114420;-73
2021/01/09 00:35:57;;;;;;;62.33;31.10;;;;;;;2.98;62.84;98957.28;261238;1102;114610;-73
2021/01/09 00:41:00;;;;;;;64.50;32.40;;;;;;;2.95;63.07;98963.49;261006;1104;114583;-74
2021/01/09 00:46:03;;;;;;;62.73;31.73;;;;;;;2.98;63.33;98971.28;260971;1102;114505;-74
2021/01/09 00:51:11;;;;;;;59.17;32.37;;;;;;;2.97;63.30;98966.09;260971;1103;115000;-74
2021/01/09 00:56:17;;;;;;;61.00;31.57;;;;;;;2.97;63.38;98972.20;260184;1105;114703;-74
2021/01/09 01:01:25;;;;;;;62.70;31.60;;;;;;;2.96;63.69;98974.89;260147;1101;114552;-73
2021/01/09 01:06:28;;;;;;;58.13;28.80;;;;;;;2.98;62.97;98971.28;259856;1104;115050;-74
2021/01/09 01:11:33;;;;;;;58.07;29.90;;;;;;;2.99;63.58;98973.02;255711;1104;116979;-72
2021/01/09 01:16:36;;;;;;;56.17;27.33;;;;;;;3.02;63.35;98967.67;260788;1104;114740;-73
2021/01/09 01:21:39;;;;;;;49.57;25.57;;;;;;;3.01;62.86;98971.19;261148;1101;114695;-72
2021/01/09 01:26:42;;;;;;;53.67;26.47;;;;;;;2.95;63.28;98965.27;260472;1101;114984;-73
2021/01/09 01:31:44;;;;;;;46.27;23.97;;;;;;;2.92;63.50;98966.25;260966;1103;114739;-74
2021/01/09 01:36:48;;;;;;;46.83;24.87;;;;;;;2.92;63.51;98965.36;260934;1104;114867;-74
2021/01/09 01:41:51;;;;;;;43.10;24.00;;;;;;;2.86;62.99;98966.44;260917;1104;114875;-74
2021/01/09 01:46:53;;;;;;;45.10;23.43;;;;;;;2.85;62.97;98975.20;261022;1104;114980;-74
2021/01/09 01:51:56;;;;;;;44.43;23.27;;;;;;;2.83;63.50;98970.02;260439;1101;115068;-72
2021/01/09 01:57:01;;;;;;;39.30;20.53;;;;;;;2.86;63.24;98966.44;261012;1102;114795;-73
2021/01/09 02:02:07;;;;;;;39.73;20.63;;;;;;;2.81;63.10;98968.34;261158;1101;115061;-73
2021/01/09 02:07:15;;;;;;;33.07;17.70;;;;;;;2.74;63.01;98970.30;260991;1104;114764;-74
2021/01/09 02:12:45;;;;;;;30.53;17.63;;;;;;;2.75;63.21;98973.78;259304;1102;114758;-73
2021/01/09 02:17:51;;;;;;;33.07;17.50;;;;;;;2.73;62.91;98976.47;261167;1101;115155;-73
2021/01/09 02:22:57;;;;;;;28.40;16.90;;;;;;;2.69;63.07;98971.37;260832;1103;114838;-74
2021/01/09 02:28:00;;;;;;;30.53;16.93;;;;;;;2.67;62.95;98975.80;261038;1101;114757;-73
2021/01/09 02:33:06;;;;;;;27.73;15.40;;;;;;;2.65;63.25;98975.86;260743;1101;115348;-73
2021/01/09 02:38:09;;;;;;;29.77;16.33;;;;;;;2.58;63.30;98983.06;261020;1101;114651;-73
2021/01/09 02:43:12;;;;;;;29.17;15.93;;;;;;;2.62;63.08;98982.98;260817;1104;114975;-74
2021/01/09 02:48:15;;;;;;;29.43;16.00;;;;;;;2.58;63.01;98985.70;260692;1104;114665;-73
2021/01/09 02:53:17;;;;;;;27.60;16.57;;;;;;;2.57;63.41;98989.20;260936;1104;115152;-73
2021/01/09 02:58:19;;;;;;;28.07;15.77;;;;;;;2.53;63.20;98989.36;261042;1101;115731;-73
2021/01/09 03:03:21;;;;;;;27.93;15.90;;;;;;;2.49;63.63;98985.11;261191;1101;114703;-73
2021/01/09 03:08:23;;;;;;;27.00;15.20;;;;;;;2.45;63.25;98986.12;260959;1100;114656;-73
2021/01/09 03:13:26;;;;;;;31.67;17.53;;;;;;;2.43;63.34;98986.14;261055;1101;114756;-73
2021/01/09 03:18:28;;;;;;;30.43;15.67;;;;;;;2.43;63.72;98978.27;261287;1101;114878;-74
2021/01/09 03:23:31;;;;;;;26.67;15.00;;;;;;;2.49;64.09;98987.73;259596;1101;114671;-74
2021/01/09 03:28:33;;;;;;;26.10;15.90;;;;;;;2.47;63.86;98982.52;260523;1103;114606;-73
2021/01/09 03:33:36;;;;;;;23.77;14.18;;;;;;;2.44;64.28;98987.85;260960;1101;114767;-73
2021/01/09 03:38:38;;;;;;;25.77;14.40;;;;;;;2.39;63.79;98992.40;261194;1101;114919;-72
2021/01/09 03:43:40;;;;;;;22.17;13.10;;;;;;;2.27;63.92;98995.37;261026;1102;114972;-72
2021/01/09 03:48:43;;;;;;;23.07;14.20;;;;;;;2.21;64.14;99003.42;261151;1101;114969;-72
2021/01/09 03:53:45;;;;;;;23.20;14.03;;;;;;;2.24;64.68;98993.72;261140;1103;114569;-72
2021/01/09 03:58:47;;;;;;;23.77;14.10;;;;;;;2.29;64.46;99004.08;260989;1101;114809;-73
2021/01/09 04:03:50;;;;;;;22.63;13.67;;;;;;;2.27;64.56;99011.13;261239;1101;115569;-73
2021/01/09 04:08:52;;;;;;;24.10;13.83;;;;;;;2.27;64.41;99008.50;261123;1102;114676;-73
2021/01/09 04:13:55;;;;;;;23.33;13.83;;;;;;;2.27;64.74;99008.50;261118;1101;114714;-73
2021/01/09 04:18:58;;;;;;;23.03;13.10;;;;;;;2.28;64.14;99015.49;261250;1101;115595;-73
2021/01/09 04:24:00;;;;;;;25.37;15.07;;;;;;;2.26;64.67;99015.52;261181;1101;114618;-73
2021/01/09 04:29:03;;;;;;;27.50;15.27;;;;;;;2.27;64.89;99016.38;261220;1101;115239;-73
2021/01/09 04:34:05;;;;;;;25.83;15.03;;;;;;;2.26;64.82;99009.41;261204;1101;114886;-73
2021/01/09 04:39:07;;;;;;;22.53;15.07;;;;;;;2.28;64.93;99011.10;261293;1101;114845;-74
2021/01/09 04:44:11;;;;;;;25.20;14.93;;;;;;;2.34;64.96;99015.30;261309;1101;114839;-73
2021/01/09 04:49:14;;;;;;;27.00;15.90;;;;;;;2.32;64.75;99012.72;260948;1101;114951;-73
2021/01/09 04:54:19;;;;;;;26.00;15.50;;;;;;;2.30;65.00;99011.89;260902;1104;115061;-73
2021/01/09 04:59:23;;;;;;;24.00;15.30;;;;;;;2.33;65.10;99019.69;261114;1101;114723;-72
2021/01/09 05:04:26;;;;;;;23.00;14.73;;;;;;;2.38;65.17;99024.83;261016;1101;115215;-73
2021/01/09 05:09:28;;;;;;;22.57;14.30;;;;;;;2.39;65.59;99028.31;261430;1101;114724;-73
2021/01/09 05:14:30;;;;;;;25.00;15.50;;;;;;;2.38;65.07;99032.70;261279;1102;114524;-73
2021/01/09 05:19:32;;;;;;;26.13;15.20;;;;;;;2.34;65.06;99031.94;261423;1101;114755;-73
2021/01/09 05:24:35;;;;;;;27.87;16.03;;;;;;;2.35;64.91;99040.67;261573;1101;114761;-72
2021/01/09 05:29:37;;;;;;;26.53;15.80;;;;;;;2.36;64.91;99050.26;261513;1101;115196;-73
2021/01/09 05:34:53;;;;;;;23.40;14.70;;;;;;;2.40;64.95;99046.63;261261;1101;114799;-73
2021/01/09 05:39:58;;;;;;;24.23;15.37;;;;;;;2.41;64.94;99050.97;261378;1101;114634;-73
2021/01/09 05:45:02;;;;;;;24.87;15.43;;;;;;;2.39;64.57;99050.17;261311;1100;115032;-73
2021/01/09 05:50:07;;;;;;;28.90;16.50;;;;;;;2.38;64.98;99058.97;261359;1101;115808;-74
2021/01/09 05:55:09;;;;;;;25.40;15.53;;;;;;;2.38;64.96;99061.59;261119;1101;114900;-73
2021/01/09 06:00:12;;;;;;;28.10;16.53;;;;;;;2.37;65.02;99067.72;260994;1101;114971;-74
2021/01/09 06:05:20;;;;;;;27.20;16.77;;;;;;;2.38;65.02;99077.34;261523;1100;115048;-73
2021/01/09 06:10:24;;;;;;;28.07;16.50;;;;;;;2.40;64.78;99082.55;261110;1101;114740;-73
2021/01/09 06:15:30;;;;;;;29.93;16.93;;;;;;;2.41;64.98;99095.61;261505;1101;114770;-73
2021/01/09 06:20:33;;;;;;;27.30;16.57;;;;;;;2.43;64.80;99101.70;261178;1101;114653;-73
2021/01/09 06:25:36;;;;;;;30.73;17.37;;;;;;;2.50;65.25;99102.39;261260;1101;114865;-73
2021/01/09 06:30:41;;;;;;;28.73;17.10;;;;;;;2.54;65.12;99106.64;261198;1102;114848;-73
2021/01/09 06:35:46;;;;;;;25.70;16.07;;;;;;;2.50;64.98;99110.27;261650;1102;114885;-73
2021/01/09 06:40:49;;;;;;;30.13;18.10;;;;;;;2.48;64.98;99112.06;261117;1101;114715;-73
2021/01/09 06:45:52;;;;;;;31.67;19.43;;;;;;;2.47;64.88;99113.83;260937;1103;114920;-73
2021/01/09 06:50:54;;;;;;;30.20;16.80;;;;;;;2.53;65.00;99131.20;261371;1101;114990;-73
2021/01/09 06:55:56;;;;;;;27.97;16.70;;;;;;;2.56;65.06;99139.00;261382;1101;114659;-73
2021/01/09 07:01:19;;;;;;;30.70;17.77;;;;;;;2.56;65.00;99144.25;260874;1104;114951;-73
2021/01/09 07:06:57;;;;;;;32.53;18.10;;;;;;;2.57;65.05;99156.47;261434;1101;114616;-74
2021/01/09 07:12:00;;;;;;;32.77;18.70;;;;;;;2.58;65.28;99153.81;261146;1101;114639;-73
2021/01/09 07:17:03;;;;;;;28.87;18.20;;;;;;;2.60;65.14;99167.75;261039;1101;114881;-73
2021/01/09 07:22:08;;;;;;;33.67;19.43;;;;;;;2.56;65.30;99186.28;261286;1101;114976;-73
2021/01/09 07:27:12;;;;;;;32.13;18.97;;;;;;;2.54;65.26;99182.82;260994;1104;115104;-73
2021/01/09 07:32:34;;;;;;;36.30;20.20;;;;;;;2.56;65.54;99191.53;261515;1101;115722;-73
2021/01/09 07:37:39;;;;;;;31.40;18.87;;;;;;;2.60;65.31;99196.65;260936;1101;116546;-74
2021/01/09 07:42:43;;;;;;;34.13;19.17;;;;;;;2.63;65.14;99198.34;261311;1101;114941;-74
2021/01/09 07:47:48;;;;;;;35.83;20.30;;;;;;;2.66;65.40;99202.66;261110;1101;115367;-74
2021/01/09 07:53:05;;;;;;;31.73;19.05;;;;;;;2.68;65.49;99195.58;260974;1101;115044;-74
2021/01/09 07:58:07;;;;;;;34.03;21.37;;;;;;;2.77;65.47;99198.81;260898;1103;114926;-74
2021/01/09 08:03:10;;;;;;;36.00;23.03;;;;;;;2.76;65.62;99204.12;260919;1104;115277;-75
2021/01/09 08:08:12;;;;;;;37.03;22.80;;;;;;;2.77;65.51;99205.84;261126;1102;114709;-73
2021/01/09 08:13:16;;;;;;;33.73;20.93;;;;;;;2.74;65.49;99200.67;261062;1103;115836;-74
2021/01/09 08:18:20;;;;;;;39.38;23.00;;;;;;;2.70;65.12;99209.55;261136;1101;114724;-74
2021/01/09 08:23:23;;;;;;;41.97;24.33;;;;;;;2.71;65.27;99217.38;260925;1101;115096;-75
2021/01/09 08:28:25;;;;;;;40.53;24.27;;;;;;;2.79;65.57;99225.92;261137;1102;115168;-75
2021/01/09 08:33:31;;;;;;;39.27;22.33;;;;;;;2.85;65.62;99216.98;261093;1101;114644;-74
2021/01/09 08:38:36;;;;;;;39.67;23.30;;;;;;;2.86;65.46;99218.73;260948;1101;115159;-74
2021/01/09 08:43:39;;;;;;;39.85;23.85;;;;;;;2.87;65.53;99222.22;261151;1101;114547;-74
2021/01/09 08:48:41;;;;;;;35.27;22.80;;;;;;;2.89;65.07;99223.02;261326;1101;114973;-74
2021/01/09 08:53:45;;;;;;;36.13;22.67;;;;;;;2.91;65.39;99234.36;261115;1101;114885;-75
2021/01/09 08:58:48;;;;;;;38.53;22.73;;;;;;;2.97;65.33;99219.28;261056;1101;114786;-75
2021/01/09 09:03:53;;;;;;;35.77;21.50;;;;;;;3.00;65.01;99223.61;261370;1101;114723;-74
2021/01/09 09:08:56;;;;;;;35.83;21.13;;;;;;;3.03;65.24;99224.37;261073;1101;114486;-74
2021/01/09 09:14:09;;;;;;;38.03;21.43;;;;;;;3.06;65.29;99215.55;261100;1101;114766;-74
2021/01/09 09:19:17;;;;;;;38.80;21.05;;;;;;;3.17;65.37;99220.49;261082;1101;115033;-74
2021/01/09 09:24:20;;;;;;;35.70;21.73;;;;;;;3.26;65.28;99220.20;261309;1101;114870;-74
2021/01/09 09:29:31;;;;;;;34.63;20.63;;;;;;;3.31;64.85;99213.91;260887;1101;114772;-74
2021/01/09 09:34:33;;;;;;;36.50;21.43;;;;;;;3.39;65.21;99200.52;261066;1101;114527;-74
2021/01/09 09:39:35;;;;;;;31.63;19.33;;;;;;;3.48;64.69;99205.51;261088;1101;115184;-74
2021/01/09 09:44:43;;;;;;;36.83;22.03;;;;;;;3.59;65.14;99204.31;261089;1101;115000;-73
2021/01/09 09:49:47;;;;;;;37.30;21.27;;;;;;;3.61;64.23;99208.63;261051;1101;114787;-74
2021/01/09 09:55:09;;;;;;;40.87;23.63;;;;;;;3.65;64.34;99197.09;259661;1101;115038;-76
2021/01/09 10:00:12;;;;;;;39.37;23.03;;;;;;;3.73;64.71;99197.70;261003;1102;114787;-76
2021/01/09 10:05:16;;;;;;;40.70;22.47;;;;;;;3.88;64.48;99198.14;261178;1101;115038;-76
2021/01/09 10:10:20;;;;;;;31.17;19.03;;;;;;;4.00;64.07;99197.73;261034;1101;114725;-73
2021/01/09 10:15:23;;;;;;;34.50;20.85;;;;;;;4.06;63.78;99194.04;261256;1101;116916;-76
2021/01/09 10:20:29;;;;;;;29.50;19.37;;;;;;;4.14;64.22;99192.86;261081;1101;114876;-75
2021/01/09 10:25:32;;;;;;;37.17;19.40;;;;;;;4.19;64.07;99192.72;260808;1103;115017;-76
2021/01/09 10:30:35;;;;;;;36.07;18.93;;;;;;;4.18;63.41;99197.13;261209;1101;114675;-78
2021/01/09 10:35:37;;;;;;;30.70;17.57;;;;;;;4.27;64.04;99183.63;261181;1101;115076;-74
2021/01/09 10:40:39;;;;;;;30.13;17.47;;;;;;;4.38;64.40;99185.92;260828;1103;115347;-76
2021/01/09 10:45:42;;;;;;;28.97;17.80;;;;;;;4.40;62.76;99191.13;261133;1101;114768;-77
2021/01/09 10:50:44;;;;;;;29.97;18.17;;;;;;;4.25;63.14;99192.52;261249;1101;114865;-76
2021/01/09 10:55:47;;;;;;;30.43;18.23;;;;;;;4.13;63.19;99193.78;261118;1101;114782;-76
2021/01/09 11:00:50;;;;;;;35.00;20.43;;;;;;;4.01;63.21;99188.94;261530;1101;114725;-77
2021/01/09 11:05:52;;;;;;;30.33;16.93;;;;;;;3.94;63.37;99183.02;260783;1104;114845;-76
2021/01/09 11:10:55;;;;;;;28.47;17.57;;;;;;;3.87;62.76;99191.98;261006;1103;114814;-76
2021/01/09 11:15:57;;;;;;;27.20;15.13;;;;;;;3.85;63.15;99192.98;261101;1101;114982;-76
2021/01/09 11:21:00;;;;;;;31.63;17.53;;;;;;;3.86;63.05;99199.95;261170;1101;114878;-77
2021/01/09 11:26:03;;;;;;;29.33;16.93;;;;;;;3.85;63.09;99198.23;260893;1101;115176;-77
2021/01/09 11:31:08;;;;;;;25.93;16.23;;;;;;;3.84;63.46;99202.65;261045;1102;114758;-77
2021/01/09 11:36:12;;;;;;;27.93;16.07;;;;;;;3.82;63.77;99216.77;261248;1101;114722;-77
2021/01/09 11:41:19;;;;;;;26.37;16.07;;;;;;;3.78;63.04;99206.33;261234;1100;114810;-76
2021/01/09 11:46:26;;;;;;;25.17;14.90;;;;;;;3.83;63.13;99207.95;261253;1101;114601;-76
2021/01/09 11:51:29;;;;;;;30.33;17.53;;;;;;;3.88;63.91;99203.41;260996;1103;114742;-76
2021/01/09 11:56:31;;;;;;;27.37;16.47;;;;;;;3.89;63.29;99202.48;260964;1101;115087;-78
2021/01/09 12:01:37;;;;;;;26.53;15.63;;;;;;;3.82;63.50;99209.72;260809;1101;115278;-76
2021/01/09 12:06:40;;;;;;;29.07;16.77;;;;;;;3.78;63.53;99203.69;261096;1102;115303;-76
2021/01/09 12:11:43;;;;;;;30.03;17.40;;;;;;;3.80;62.84;99206.27;261034;1101;115685;-79
2021/01/09 12:16:45;;;;;;;28.33;16.80;;;;;;;3.77;63.19;99207.25;261046;1102;114981;-77
2021/01/09 12:21:52;;;;;;;29.27;16.63;;;;;;;3.73;63.13;99210.00;260996;1101;115281;-76
2021/01/09 12:26:54;;;;;;;34.73;19.27;;;;;;;3.67;63.22;99203.18;261266;1101;114886;-76
2021/01/09 12:31:58;;;;;;;29.17;18.10;;;;;;;3.69;63.48;99211.88;260916;1103;114910;-77
2021/01/09 12:37:00;;;;;;;35.13;20.97;;;;;;;3.73;63.38;99212.63;261182;1101;114638;-75
2021/01/09 12:42:02;;;;;;;35.53;19.50;;;;;;;3.74;63.12;99215.23;260914;1102;114816;-76
2021/01/09 12:47:05;;;;;;;34.60;19.30;;;;;;;3.70;63.46;99208.35;261158;1101;115168;-76
2021/01/09 12:52:07;;;;;;;36.83;21.30;;;;;;;3.67;63.06;99208.45;261275;1101;114872;-76
2021/01/09 12:57:10;;;;;;;32.70;19.50;;;;;;;3.65;63.34;99209.39;261331;1101;115038;-76
2021/01/09 13:02:12;;;;;;;32.83;19.63;;;;;;;3.70;63.24;99208.35;261158;1102;115103;-76
2021/01/09 13:13:09;;;;;;;39.80;21.50;;;;;;;3.68;63.52;99217.20;261495;1101;115034;-76
2021/01/09 13:18:11;;;;;;;37.40;22.03;;;;;;;3.73;63.14;99228.42;260983;1102;114847;-76
2021/01/09 13:23:15;;;;;;;37.07;21.23;;;;;;;3.67;63.43;99234.77;261407;1101;115157;-75
2021/01/09 13:28:18;;;;;;;35.80;21.62;;;;;;;3.71;63.82;99239.02;260824;1103;115464;-76
2021/01/09 13:33:21;;;;;;;35.80;21.50;;;;;;;3.72;63.73;99239.87;261136;1101;114895;-76
2021/01/09 13:38:23;;;;;;;39.30;20.87;;;;;;;3.65;63.39;99243.61;261275;1100;114693;-75
2021/01/09 13:43:25;;;;;;;39.13;22.10;;;;;;;3.60;63.10;99251.66;261063;1101;114735;-76
2021/01/09 13:48:28;;;;;;;40.60;22.17;;;;;;;3.58;63.03;99257.86;261301;1101;114643;-75
2021/01/09 13:53:30;;;;;;;40.30;22.70;;;;;;;3.60;63.97;99266.55;261294;1100;114671;-75
2021/01/09 13:58:33;;;;;;;42.57;22.77;;;;;;;3.62;63.79;99272.64;261333;1101;114727;-75
2021/01/09 14:03:35;;;;;;;36.73;21.33;;;;;;;3.66;63.94;99275.13;261216;1101;114937;-75
2021/01/09 14:08:37;;;;;;;37.03;21.53;;;;;;;3.69;64.06;99284.70;261172;1101;114863;-75
2021/01/09 14:13:40;;;;;;;36.23;20.77;;;;;;;3.66;63.11;99283.02;261276;1101;115614;-74
2021/01/09 14:18:58;;;;;;;32.67;19.57;;;;;;;3.69;63.68;99284.70;260955;1103;114706;-74
2021/01/09 14:24:01;;;;;;;37.13;21.63;;;;;;;3.71;63.28;99290.80;261123;1101;114796;-74
2021/01/09 14:29:05;;;;;;;32.73;19.23;;;;;;;3.71;62.97;99290.80;261291;1102;114842;-74
2021/01/09 14:34:07;;;;;;;33.67;19.17;;;;;;;3.72;63.38;99295.14;261221;1102;114973;-72
2021/01/09 14:39:11;;;;;;;36.67;19.87;;;;;;;3.61;63.11;99295.47;261228;1101;114912;-73
2021/01/09 14:44:14;;;;;;;31.83;19.47;;;;;;;3.52;63.17;99311.52;260262;1101;114718;-76
2021/01/09 14:49:16;;;;;;;33.83;20.20;;;;;;;3.44;62.65;99309.11;261083;1101;114900;-72
2021/01/09 14:54:19;;;;;;;29.00;17.23;;;;;;;3.41;63.16;99316.23;260346;1101;115007;-72
2021/01/09 14:59:22;;;;;;;34.50;19.83;;;;;;;3.40;62.71;99312.75;261186;1101;114657;-75
2021/01/09 15:04:24;;;;;;;30.00;18.73;;;;;;;3.40;63.32;99322.41;261114;1101;114905;-72
2021/01/09 15:09:27;;;;;;;34.10;20.80;;;;;;;3.41;63.53;99330.24;261102;1101;115981;-70
2021/01/09 15:14:29;;;;;;;33.93;20.43;;;;;;;3.46;63.38;99349.38;260918;1101;115221;-71
2021/01/09 15:19:32;;;;;;;31.37;18.20;;;;;;;3.43;63.02;99348.59;261175;1101;114804;-73
2021/01/09 15:24:36;;;;;;;29.37;18.13;;;;;;;3.34;63.13;99349.73;261224;1101;114762;-70
2021/01/09 15:29:38;;;;;;;28.03;17.07;;;;;;;3.29;62.74;99354.24;261245;1101;114738;-70
2021/01/09 15:34:40;;;;;;;32.20;19.67;;;;;;;3.24;62.83;99357.02;261274;1102;114941;-71
2021/01/09 15:39:44;;;;;;;31.27;18.73;;;;;;;3.19;63.02;99374.66;261200;1101;115695;-71
2021/01/09 15:45:07;;;;;;;27.40;16.20;;;;;;;3.21;63.24;99379.91;261147;1101;114789;-71
2021/01/09 15:50:10;;;;;;;29.73;18.30;;;;;;;3.20;62.54;99383.45;261188;1101;114874;-71
2021/01/09 15:55:13;;;;;;;33.80;20.47;;;;;;;3.19;63.20;99376.44;260970;1102;114633;-71
2021/01/09 16:00:17;;;;;;;32.77;18.37;;;;;;;3.19;63.07;99382.55;261092;1101;114995;-71
2021/01/09 16:05:19;;;;;;;30.62;18.45;;;;;;;3.17;62.76;99389.64;261266;1102;114838;-71
2021/01/09 16:10:21;;;;;;;29.87;19.30;;;;;;;3.16;62.94;99389.66;259840;1101;114916;-70
2021/01/09 16:15:24;;;;;;;34.50;20.63;;;;;;;3.15;62.82;99394.06;261192;1101;114819;-70
2021/01/09 16:20:26;;;;;;;38.10;20.03;;;;;;;3.11;62.59;99404.72;260958;1101;114834;-70
2021/01/09 16:25:29;;;;;;;31.03;19.43;;;;;;;3.06;62.94;99395.19;261047;1101;115626;-70
2021/01/09 16:30:51;;;;;;;34.37;19.87;;;;;;;3.02;62.73;99400.54;261183;1102;114873;-70
2021/01/09 16:35:53;;;;;;;40.17;21.00;;;;;;;2.97;62.90;99405.92;261413;1101;114785;-70
2021/01/09 16:40:56;;;;;;;36.30;21.67;;;;;;;2.97;62.92;99405.06;261404;1101;114858;-70
2021/01/09 16:45:58;;;;;;;38.30;21.87;;;;;;;2.98;62.81;99409.41;260982;1102;114944;-70
2021/01/09 16:51:01;;;;;;;37.30;21.70;;;;;;;2.97;63.44;99413.81;261253;1101;114925;-70
2021/01/09 16:56:05;;;;;;;35.73;21.33;;;;;;;3.01;63.05;99412.83;261253;1101;114763;-70
2021/01/09 17:01:09;;;;;;;37.53;20.68;;;;;;;2.98;63.18;99409.41;261015;1101;114551;-70
2021/01/09 17:06:12;;;;;;;37.13;21.50;;;;;;;2.94;62.98;99416.52;261278;1101;114564;-70
2021/01/09 17:11:15;;;;;;;38.13;22.20;;;;;;;2.93;63.14;99427.94;261271;1100;114707;-70
2021/01/09 17:16:17;;;;;;;40.27;23.43;;;;;;;2.93;63.15;99424.45;261493;1101;114759;-71
2021/01/09 17:21:19;;;;;;;39.47;21.73;;;;;;;2.92;62.98;99427.96;261420;1101;115586;-71
2021/01/09 17:26:22;;;;;;;37.73;21.60;;;;;;;2.89;63.25;99426.30;261298;1101;114830;-71
2021/01/09 17:31:24;;;;;;;36.10;21.67;;;;;;;2.89;63.17;99434.18;261658;1101;115949;-71
2021/01/09 17:36:26;;;;;;;36.90;22.13;;;;;;;2.89;63.40;99428.03;261277;1101;114785;-70
2021/01/09 17:41:32;;;;;;;40.90;24.37;;;;;;;2.87;62.94;99428.09;261030;1101;115119;-70
2021/01/09 17:46:36;;;;;;;43.90;24.70;;;;;;;2.87;62.70;99433.34;261427;1101;114686;-71
2021/01/09 17:51:39;;;;;;;40.57;24.17;;;;;;;2.88;63.17;99439.45;260538;1101;114741;-71
2021/01/09 17:56:42;;;;;;;46.90;26.70;;;;;;;2.87;63.23;99443.86;261229;1101;114761;-70
2021/01/09 18:01:45;;;;;;;42.57;25.57;;;;;;;2.85;63.45;99443.02;261148;1101;114703;-70
2021/01/09 18:06:49;;;;;;;45.50;26.67;;;;;;;2.86;63.15;99439.52;261036;1101;114833;-71
2021/01/09 18:11:52;;;;;;;49.63;27.13;;;;;;;2.86;63.49;99441.28;261070;1101;114637;-71
2021/01/09 18:16:59;;;;;;;40.73;24.13;;;;;;;2.83;63.20;99444.84;261179;1101;114685;-72
2021/01/09 18:22:08;;;;;;;47.43;25.47;;;;;;;2.80;63.53;99447.53;261176;1101;115296;-70
2021/01/09 18:27:27;;;;;;;48.70;28.63;;;;;;;2.82;63.30;99451.00;261459;1101;114994;-70
2021/01/09 18:32:33;;;;;;;46.93;26.63;;;;;;;2.82;63.45;99448.38;261251;1102;114947;-69
2021/01/09 18:37:37;;;;;;;55.58;28.15;;;;;;;2.83;63.10;99455.35;261111;1101;115797;-70
2021/01/09 18:42:39;;;;;;;54.10;28.33;;;;;;;2.82;63.43;99456.27;260785;1101;114926;-70
2021/01/09 18:47:44;;;;;;;55.63;28.80;;;;;;;2.79;63.39;99458.96;261000;1101;115118;-71
2021/01/09 18:52:54;;;;;;;55.77;29.80;;;;;;;2.80;63.37;99455.42;261197;1101;114838;-71
2021/01/09 18:58:11;;;;;;;51.83;27.90;;;;;;;2.77;63.21;99458.98;261050;1101;114887;-71
2021/01/09 19:03:34;;;;;;;47.53;27.03;;;;;;;2.76;63.32;99459.03;261126;1101;114906;-72
2021/01/09 19:08:43;;;;;;;50.83;26.87;;;;;;;2.76;63.37;99459.03;261208;1101;114803;-72
2021/01/09 19:14:10;;;;;;;59.70;28.87;;;;;;;2.80;63.46;99465.94;261048;1101;115406;-71
2021/01/09 19:19:18;;;;;;;53.77;28.00;;;;;;;2.81;63.51;99467.66;261138;1101;114912;-71
2021/01/09 19:24:22;;;;;;;52.88;29.90;;;;;;;2.82;63.16;99472.03;261148;1101;114794;-71
2021/01/09 19:29:25;;;;;;;59.57;32.37;;;;;;;2.82;63.54;99470.27;261047;1101;114505;-71
2021/01/09 19:34:30;;;;;;;54.83;28.93;;;;;;;2.82;63.06;99475.52;261133;1101;114728;-69
2021/01/09 19:40:11;;;;;;;60.77;31.83;;;;;;;2.80;63.17;99472.05;259988;1104;114972;-72
2021/01/09 19:45:38;;;;;;;65.60;34.27;;;;;;;2.79;63.35;99478.22;260832;1101;114692;-72
2021/01/09 19:50:42;;;;;;;70.80;35.70;;;;;;;2.79;63.54;99482.61;261145;1102;114659;-70
2021/01/09 19:55:51;;;;;;;66.07;34.80;;;;;;;2.79;63.87;99493.13;260930;1101;114805;-69
2021/01/09 20:00:54;;;;;;;71.23;37.90;;;;;;;2.79;63.93;99495.75;261148;1101;114531;-68
2021/01/09 20:06:03;;;;;;;67.13;35.90;;;;;;;2.80;64.06;99486.95;260842;1102;114640;-71
2021/01/09 20:11:06;;;;;;;72.20;40.03;;;;;;;2.83;63.70;99494.77;260976;1101;114825;-72
2021/01/09 20:16:27;;;;;;;74.60;38.00;;;;;;;2.83;63.88;99503.52;260849;1104;114761;-73
2021/01/09 20:21:43;;;;;;;69.70;36.80;;;;;;;2.80;63.64;99500.95;261376;1101;115029;-70
2021/01/09 20:26:46;;;;;;;71.77;36.13;;;;;;;2.80;63.92;99500.09;261329;1100;114922;-74
2021/01/09 20:31:52;;;;;;;75.63;39.37;;;;;;;2.80;63.58;99519.35;261149;1101;114656;-72
2021/01/09 20:37:00;;;;;;;77.20;37.27;;;;;;;2.81;64.15;99505.30;261209;1101;114789;-74
2021/01/09 20:42:04;;;;;;;71.23;37.53;;;;;;;2.81;64.02;99522.84;261270;1100;114741;-74
2021/01/09 20:47:07;;;;;;;76.30;38.50;;;;;;;2.82;64.21;99520.20;260985;1101;115188;-73
2021/01/09 20:52:10;;;;;;;78.03;38.87;;;;;;;2.82;64.23;99527.22;261006;1101;115334;-73
2021/01/09 20:57:13;;;;;;;67.77;35.43;;;;;;;2.83;63.91;99529.80;261285;1101;114907;-74
2021/01/09 21:02:15;;;;;;;72.37;36.00;;;;;;;2.83;63.97;99535.05;259329;1101;114720;-70
2021/01/09 21:07:18;;;;;;;65.10;32.90;;;;;;;2.79;63.67;99532.55;261144;1100;114672;-70
2021/01/09 21:12:30;;;;;;;66.00;33.43;;;;;;;2.79;63.77;99536.03;261411;1101;114940;-70
2021/01/09 21:17:32;;;;;;;68.20;34.40;;;;;;;2.81;63.93;99536.84;261259;1101;115083;-71
2021/01/09 21:22:35;;;;;;;56.43;28.77;;;;;;;2.83;63.56;99545.57;261031;1101;114858;-73
2021/01/09 21:27:37;;;;;;;54.90;28.90;;;;;;;2.82;63.70;99546.48;260932;1103;114737;-72
2021/01/09 21:32:40;;;;;;;52.67;28.97;;;;;;;2.87;63.55;99554.25;261012;1102;114835;-72
2021/01/09 21:37:44;;;;;;;55.90;28.40;;;;;;;2.88;63.26;99552.48;260891;1103;114645;-77
2021/01/09 21:42:52;;;;;;;57.13;28.70;;;;;;;2.85;62.97;99550.78;258734;1103;114730;-82
2021/01/09 21:47:58;;;;;;;48.87;26.30;;;;;;;2.88;63.08;99552.48;257867;1101;115939;-83
2021/01/09 21:53:03;;;;;;;50.10;25.17;;;;;;;2.86;63.10;99542.02;261303;1101;115860;-82
2021/01/09 21:58:06;;;;;;;42.93;22.93;;;;;;;2.83;63.17;99544.71;261322;1101;115297;-84
2021/01/09 22:03:08;;;;;;;41.47;22.43;;;;;;;2.83;62.94;99545.57;260810;1101;114766;-81
2021/01/09 22:08:11;;;;;;;48.07;23.60;;;;;;;2.85;62.90;99540.27;261370;1101;114780;-80
2021/01/09 22:13:14;;;;;;;36.77;19.17;;;;;;;2.82;62.75;99545.62;261165;1101;114875;-78
2021/01/09 22:18:17;;;;;;;32.00;16.60;;;;;;;2.82;62.31;99542.98;261056;1101;115060;-78
2021/01/09 22:23:21;;;;;;;27.40;14.00;;;;;;;2.80;62.01;99547.41;260944;1102;114604;-80
2021/01/09 22:28:23;;;;;;;26.40;14.85;;;;;;;2.80;61.97;99544.78;260901;1101;114690;-80
2021/01/09 22:33:26;;;;;;;24.27;13.07;;;;;;;2.83;61.73;99547.34;260988;1101;114943;-80
2021/01/09 22:38:33;;;;;;;23.70;13.17;;;;;;;2.82;61.53;99546.48;261320;1101;114604;-77
2021/01/09 22:43:38;;;;;;;21.93;13.40;;;;;;;2.78;61.63;99555.30;261010;1102;114305;-79
2021/01/09 22:48:42;;;;;;;23.57;12.10;;;;;;;2.74;61.24;99550.16;261293;1101;116007;-76
2021/01/09 22:53:45;;;;;;;26.87;13.17;;;;;;;2.69;61.00;99552.04;260962;1101;114781;-75
2021/01/09 22:58:48;;;;;;;26.67;14.03;;;;;;;2.65;61.85;99561.76;260915;1102;114793;-75
2021/01/09 23:03:51;;;;;;;25.60;15.03;;;;;;;2.64;60.98;99559.14;260482;1103;114919;-75
2021/01/09 23:08:53;;;;;;;32.47;17.57;;;;;;;2.65;61.25;99552.98;260813;1102;114749;-74